• Join FlightAware (Why Join?)
  • Login
  • US Flag 
03:00PM EDT


 

Airport Tracker/Info


-or-


 

Live Flight TrackerFlight Track Log ✈ FLG3862 ✈ 19-Apr-2013 ✈ KBTV - KDTW

Flight Track Log - Related Links

Times and Time Zones

All times are in EDT time to prevent confusion due to time zone crossing. See the FLG3862 flight status page for this flight to view local times or setup timezone preferences in your user account.

Time Position Orientation Groundspeed Altitude Reporting Facility
EDT Latitude Longitude Course Direction KTS MPH feet Rate Location/Type
01:30PM 44.4831 -73.3247 284° West 298 343 9,400  Level Boston Center
01:31PM 44.4656 -73.4144 255° West 251 289 11,600 1,740 Climbing Boston Center
01:32PM 44.3631 -73.7251 259° West  Level FlightAware Approximate
01:32PM 44.4458 -73.5247 256° West 272 313 12,900  Level Boston Center
01:33PM 44.3465 -73.8416 259° West  Level FlightAware Approximate
01:33PM 44.4281 -73.6261 256° West 296 341 14,700  Level Boston Center
01:34PM 44.3267 -73.9697 256° West  Level FlightAware Approximate
01:34PM 44.4081 -73.7419 256° West 305 351 16,200  Level Boston Center
01:35PM 44.3033 -74.0967 256° West  Level FlightAware Approximate
01:35PM 44.3861 -73.8547 255° West 305 351 17,700  Level Boston Center
01:36PM 44.3658 -73.9706 256° West 310 357 19,500 1,740 Climbing Boston Center
01:37PM 44.3433 -74.0831 254° West 310 357 21,200 1,320 Climbing Boston Center
01:38PM 44.3253 -74.1756 255° West 291 335 22,200 1,080 Climbing Boston Center
01:39PM 44.3025 -74.3111 257° West 291 335 23,400 840 Climbing Boston Center
01:40PM 44.2775 -74.4233 253° West 297 342 24,000 540 Climbing Boston Center
01:41PM 44.2567 -74.5386 256° West 302 348 24,500 480 Climbing Boston Center
01:42PM 44.2314 -74.6653 254° West 315 362 25,000 480 Climbing Boston Center
01:43PM 44.2103 -74.7833 256° West 343 395 25,500 540 Climbing Boston Center
01:44PM 44.1847 -74.9125 255° West 349 402 26,100 600 Climbing Boston Center
01:45PM 44.1589 -75.0447 255° West 354 407 26,800 660 Climbing Boston Center
01:46PM 44.1331 -75.1736 254° West 354 407 27,500 600 Climbing Boston Center
01:47PM 44.1089 -75.3028 255° West 354 407 28,000 240 Climbing Boston Center
01:48PM 44.0825 -75.4403 255° West 359 413 28,000  Level Boston Center
01:49PM 44.0539 -75.5775 254° West 359 413 28,000  Level Boston Center
01:50PM 44.0250 -75.7203 254° West 370 426 28,000  Level Boston Center
01:51PM 43.9956 -75.8661 254° West 381 438 28,000  Level Boston Center
01:52PM 43.9683 -76.0089 255° West 387 445 28,000  Level Boston Center
01:53PM 43.9553 -76.1581 263° West 393 452 28,000  Level Boston Center
01:54PM 43.9503 -76.3106 267° West 393 452 28,000  Level Boston Center
01:56PM 43.9167 -76.6167 261° West 380 437 28,000  Level Toronto Center
01:57PM 43.9333 -76.7667 279° West 380 437 28,000  Level Toronto Center
01:58PM 43.9167 -76.9167 261° West 380 437 28,000  Level Toronto Center
01:59PM 43.9167 -77.0667 270° West 380 437 28,000  Level Toronto Center
02:00PM 43.9000 -77.2333 262° West 390 449 28,000  Level Toronto Center
02:01PM 43.9000 -77.3667 270° West 390 449 28,000  Level Toronto Center
02:02PM 43.9000 -77.5333 270° West 390 449 28,000  Level Toronto Center
02:03PM 43.8833 -77.6667 260° West 390 449 28,000  Level Toronto Center
02:04PM 43.8500 -77.8000 251° West 390 449 28,000  Level Toronto Center
02:05PM 43.8167 -77.9500 253° West 390 449 28,000  Level Toronto Center
02:06PM 43.8000 -78.0833 260° West 390 449 28,000  Level Toronto Center
02:07PM 43.7667 -78.2500 255° West 390 449 28,000  Level Toronto Center
02:08PM 43.7500 -78.3833 260° West 390 449 28,000  Level Toronto Center
02:09PM 43.7500 -78.5500 270° West 400 460 28,000  Level Toronto Center
02:10PM 43.7000 -78.6667 239° Southwest 380 437 28,000  Level Toronto Center
02:11PM 43.6333 -78.8000 235° Southwest 380 437 28,000  Level Toronto Center
02:12PM 43.5833 -78.9167 239° Southwest 380 437 28,000 -60 Level Toronto Center
02:13PM 43.5333 -79.0333 239° Southwest 380 437 27,900 -660 Descending Toronto Center
02:14PM 43.4833 -79.1667 243° Southwest 370 426 26,700 -960 Descending Toronto Center
02:15PM 43.4333 -79.2833 239° Southwest 360 414 26,000 -360 Descending Toronto Center
02:16PM 43.3833 -79.3833 235° Southwest 320 368 26,000  Level Toronto Center
02:17PM 43.3333 -79.5000 240° Southwest 300 345 26,000  Level Toronto Center
02:18PM 43.2833 -79.5833 231° Southwest 310 357 26,000  Level Toronto Center
02:19PM 43.2500 -79.7000 249° West 320 368 26,000  Level Toronto Center
02:20PM 43.2000 -79.8000 236° Southwest 330 380 26,000 -180 Level Toronto Center
02:21PM 43.1500 -79.9000 236° Southwest 330 380 25,700 -720 Descending Toronto Center
02:22PM 43.1000 -80.0000 236° Southwest 330 380 24,600 -1,140 Descending Toronto Center
02:23PM 43.0500 -80.1167 240° Southwest 320 368 23,500 -840 Descending Toronto Center
02:24PM 43.0000 -80.2333 240° Southwest 320 368 23,000 -300 Descending Toronto Center
02:25PM 42.9667 -80.3167 241° Southwest 300 345 23,000  Level Toronto Center
02:26PM 42.9167 -80.4000 231° Southwest 300 345 23,000  Level Toronto Center
02:27PM 42.8667 -80.5000 236° Southwest 310 357 23,000  Level Toronto Center
02:28PM 42.8500 -80.5803 254° West 306 352 23,000  Level Cleveland Center
02:29PM 42.8083 -80.6767 240° Southwest 306 352 23,000  Level Cleveland Center
02:30PM 42.7603 -80.7728 236° Southwest 300 345 23,000  Level Cleveland Center
02:31PM 42.7183 -80.8658 238° Southwest 300 345 23,000  Level Cleveland Center
02:32PM 42.6972 -80.9842 256° West 309 356 23,000  Level Cleveland Center
02:33PM 42.6822 -81.0858 259° West 309 356 23,000  Level Cleveland Center
02:34PM 42.6711 -81.2044 263° West 318 366 23,000  Level Cleveland Center
02:35PM 42.6578 -81.3200 261° West 320 368 23,000  Level Cleveland Center
02:36PM 42.6447 -81.4383 262° West 320 368 23,000  Level Cleveland Center
02:37PM 42.6292 -81.5594 260° West 320 368 23,000  Level Cleveland Center
02:38PM 42.6153 -81.6836 261° West 330 380 23,000 -240 Level Cleveland Center
02:39PM 42.5997 -81.8044 260° West 330 380 22,600 -1,080 Descending Cleveland Center
02:40PM 42.5836 -81.9256 260° West 330 380 20,900 -1,740 Descending Cleveland Center
02:41PM 42.5719 -82.0353 262° West 319 367 19,200 -1,920 Descending Cleveland Center
02:42PM 42.5603 -82.1392 261° West 300 345 17,100 -1,560 Descending Cleveland Center
02:43PM 42.5442 -82.2458 258° West 294 338 16,100 -1,320 Descending Cleveland Center
02:43PM 42.5344 -82.3331 261° West 285 328 15,000 -1,440 Descending Cleveland Center
02:44PM 42.5300 -82.3525 253° West 294 338 14,700 -1,440 Descending Cleveland Center
02:45PM 42.5178 -82.4619 261° West 294 338 13,100 -1,380 Descending Cleveland Center
02:46PM 42.4994 -82.5686 257° West 294 338 12,000 -1,080 Descending Cleveland Center
02:47PM 42.4664 -82.6633 245° Southwest 288 331 11,000 -1,200 Descending Cleveland Center
02:48PM 42.4378 -82.7411 244° Southwest 264 304 9,700 -1,440 Descending Cleveland Center
02:49PM 42.4361 -82.8256 268° West 234 269 8,200 -1,560 Descending Cleveland Center
02:50PM 42.4367 -82.9100 271° West 229 264 6,700 -1,140 Descending Cleveland Center
02:51PM 42.4328 -82.9942 266° West 229 264 6,000 -780 Descending Cleveland Center
02:52PM 42.4264 -83.1064 266° West 222 255 5,100 -1,020 Descending Cleveland Center
02:53PM 42.4253 -83.1561 268° West 221 254 4,200 -1,080 Descending FAA TRACON SMA TRACON (SMA)
02:53PM 42.4164 -83.1769 240° Southwest 214 246 4,100 -300 Descending FAA TRACON SMA TRACON (SMA)
02:53PM 42.4036 -83.1975 230° Southwest 200 230 4,000 -180 Descending FAA TRACON SMA TRACON (SMA)
02:54PM 42.3900 -83.2075 208° Southwest 180 207 4,000  Level FAA TRACON SMA TRACON (SMA)
02:54PM 42.3758 -83.2183 209° Southwest 155 178 4,000  Level FAA TRACON SMA TRACON (SMA)
02:54PM 42.3656 -83.2261 209° Southwest 141 162 4,000 -180 Level FAA TRACON SMA TRACON (SMA)
02:55PM 42.3536 -83.2350 209° Southwest 138 159 3,900 -600 Descending FAA TRACON SMA TRACON (SMA)
02:55PM 42.3433 -83.2433 211° Southwest 143 165 3,600 -900 Descending FAA TRACON SMA TRACON (SMA)
02:55PM 42.3306 -83.2531 209° Southwest 147 169 3,300 -900 Descending FAA TRACON SMA TRACON (SMA)
02:56PM 42.3172 -83.2622 207° Southwest 145 167 3,000 -960 Descending FAA TRACON SMA TRACON (SMA)
02:56PM 42.3067 -83.2697 208° Southwest 147 169 2,700 -780 Descending FAA TRACON SMA TRACON (SMA)
02:56PM 42.2950 -83.2783 209° Southwest 121 139 2,500 -660 Descending FAA TRACON SMA TRACON (SMA)